Time;durP1;ratioP1;P1;durP2;ratioP2;P2;SDS_P1;SDS_P2;PMS_P1;PMS_P2;Temp;Humidity;BMP_temperature;BMP_pressure;BME280_temperature;BME280_humidity;BME280_pressure;Samples;Min_cycle;Max_cycle;Signal;HPM_P1;HPM_P2
2021/12/30 00:01:04;;;;;;;32.10;13.10;;;;;;;;;;5068761;28;20044;-75
2021/12/30 00:03:30;;;;;;;27.40;12.30;;;;;;;;;;5065633;28;20028;-74
2021/12/30 00:05:56;;;;;;;26.23;13.03;;;;;;;;;;5068674;28;20489;-75
2021/12/30 00:08:24;;;;;;;32.30;13.30;;;;;;;;;;5068003;28;20035;-74
2021/12/30 00:10:52;;;;;;;28.77;12.57;;;;;;;;;;5068861;28;20036;-74
2021/12/30 00:13:18;;;;;;;34.77;12.87;;;;;;;;;;5068311;28;20048;-74
2021/12/30 00:15:46;;;;;;;33.43;12.90;;;;;;;;;;5068519;28;20028;-75
2021/12/30 00:18:13;;;;;;;27.93;12.63;;;;;;;;;;5068250;28;20028;-74
2021/12/30 00:20:42;;;;;;;29.83;12.93;;;;;;;;;;5069401;28;20044;-75
2021/12/30 00:23:10;;;;;;;25.03;10.97;;;;;;;;;;5071968;28;20062;-72
2021/12/30 00:25:41;;;;;;;27.87;11.70;;;;;;;;;;5072239;28;20050;-73
2021/12/30 00:28:18;;;;;;;32.92;11.50;;;;;;;;;;5069117;28;20047;-75
2021/12/30 00:30:45;;;;;;;22.43;10.73;;;;;;;;;;5068024;28;20052;-73
2021/12/30 00:33:12;;;;;;;27.53;10.73;;;;;;;;;;5068841;28;20066;-73
2021/12/30 00:35:37;;;;;;;27.43;12.70;;;;;;;;;;5069163;28;20125;-74
2021/12/30 00:38:04;;;;;;;29.27;12.50;;;;;;;;;;5066961;28;20452;-73
2021/12/30 00:40:31;;;;;;;25.27;11.83;;;;;;;;;;5068452;28;20384;-74
2021/12/30 00:42:57;;;;;;;28.83;11.33;;;;;;;;;;5067290;28;20043;-72
2021/12/30 00:45:22;;;;;;;26.73;11.17;;;;;;;;;;5067572;28;20480;-71
2021/12/30 00:47:48;;;;;;;24.23;10.33;;;;;;;;;;5067271;28;20332;-72
2021/12/30 00:50:13;;;;;;;27.93;11.47;;;;;;;;;;5068184;28;20396;-73
2021/12/30 00:52:39;;;;;;;29.20;11.10;;;;;;;;;;5067323;28;20028;-72
2021/12/30 00:55:05;;;;;;;28.80;11.70;;;;;;;;;;5067177;28;20028;-71
2021/12/30 00:57:31;;;;;;;29.50;11.63;;;;;;;;;;5067669;28;20501;-73
2021/12/30 00:59:57;;;;;;;21.37;11.10;;;;;;;;;;5066909;28;20058;-72
2021/12/30 01:02:23;;;;;;;27.50;10.67;;;;;;;;;;5067393;28;20101;-72
2021/12/30 01:04:48;;;;;;;28.93;10.63;;;;;;;;;;5068797;28;20387;-71
2021/12/30 01:07:14;;;;;;;24.43;9.70;;;;;;;;;;5068283;28;20028;-72
2021/12/30 01:09:39;;;;;;;25.93;11.17;;;;;;;;;;5068093;28;20020;-71
2021/12/30 01:12:06;;;;;;;31.23;11.27;;;;;;;;;;5066793;28;20024;-71
2021/12/30 01:14:35;;;;;;;26.23;10.53;;;;;;;;;;5068668;28;20106;-71
2021/12/30 01:17:13;;;;;;;25.73;11.10;;;;;;;;;;5067203;28;20025;-71
2021/12/30 01:19:42;;;;;;;25.77;10.03;;;;;;;;;;5044550;28;20063;-71
2021/12/30 01:22:24;;;;;;;26.57;12.23;;;;;;;;;;5047879;28;20029;-71
2021/12/30 01:24:50;;;;;;;24.70;10.57;;;;;;;;;;5046317;28;20021;-69
2021/12/30 01:27:17;;;;;;;22.47;11.57;;;;;;;;;;5047245;28;20037;-71
2021/12/30 01:29:42;;;;;;;27.03;10.90;;;;;;;;;;5046325;28;20028;-73
2021/12/30 01:32:09;;;;;;;26.40;11.80;;;;;;;;;;5048127;28;20021;-74
2021/12/30 01:34:35;;;;;;;22.70;10.77;;;;;;;;;;5048126;28;20048;-73
2021/12/30 01:37:04;;;;;;;28.97;11.43;;;;;;;;;;5046717;28;20029;-74
2021/12/30 01:39:31;;;;;;;62.93;50.47;;;;;;;;;;5046602;28;20052;-72
2021/12/30 01:41:58;;;;;;;27.63;11.33;;;;;;;;;;5047989;28;20040;-70
2021/12/30 01:44:24;;;;;;;20.20;9.57;;;;;;;;;;5047115;28;20025;-73
2021/12/30 01:46:50;;;;;;;22.63;11.47;;;;;;;;;;5048181;28;20629;-72
2021/12/30 01:49:16;;;;;;;24.57;10.57;;;;;;;;;;5049171;28;20317;-71
2021/12/30 01:51:43;;;;;;;26.30;11.47;;;;;;;;;;5052198;28;20104;-70
2021/12/30 01:54:09;;;;;;;24.47;9.80;;;;;;;;;;5050477;28;20117;-71
2021/12/30 01:56:35;;;;;;;23.23;10.80;;;;;;;;;;5050910;28;20033;-73
2021/12/30 01:59:02;;;;;;;22.27;9.90;;;;;;;;;;5051472;28;20099;-72
2021/12/30 02:01:29;;;;;;;24.87;10.87;;;;;;;;;;5050429;28;20028;-72
2021/12/30 02:03:54;;;;;;;21.23;11.23;;;;;;;;;;5051450;28;20029;-72
2021/12/30 02:06:20;;;;;;;22.40;9.07;;;;;;;;;;5049447;28;20029;-72
2021/12/30 02:08:46;;;;;;;22.17;9.47;;;;;;;;;;5050109;28;20029;-73
2021/12/30 02:11:12;;;;;;;18.90;8.77;;;;;;;;;;5051626;28;20032;-72
2021/12/30 02:13:37;;;;;;;23.30;10.37;;;;;;;;;;5049489;28;20021;-70
2021/12/30 02:16:03;;;;;;;21.07;9.93;;;;;;;;;;5051785;28;20047;-71
2021/12/30 02:18:30;;;;;;;20.20;9.93;;;;;;;;;;5051169;28;20029;-71
2021/12/30 02:21:01;;;;;;;24.47;10.53;;;;;;;;;;5049897;28;20143;-73
2021/12/30 02:23:32;;;;;;;18.50;9.20;;;;;;;;;;5049786;28;20029;-74
2021/12/30 02:26:01;;;;;;;20.80;9.30;;;;;;;;;;5050223;28;20068;-74
2021/12/30 02:28:30;;;;;;;24.20;8.63;;;;;;;;;;5051368;28;20121;-74
2021/12/30 02:30:57;;;;;;;19.57;10.07;;;;;;;;;;5051290;28;20111;-75
2021/12/30 02:33:23;;;;;;;24.63;9.90;;;;;;;;;;5050316;28;20119;-73
2021/12/30 02:35:49;;;;;;;19.50;10.23;;;;;;;;;;5051000;28;20087;-75
2021/12/30 02:38:17;;;;;;;23.87;9.80;;;;;;;;;;5051029;28;20060;-74
2021/12/30 02:40:45;;;;;;;17.50;9.07;;;;;;;;;;5050353;28;20029;-73
2021/12/30 02:43:15;;;;;;;21.00;9.67;;;;;;;;;;5051294;28;20393;-75
2021/12/30 02:45:44;;;;;;;20.40;9.40;;;;;;;;;;5050129;28;20045;-74
2021/12/30 02:48:21;;;;;;;24.23;8.60;;;;;;;;;;5051322;28;20029;-75
2021/12/30 02:50:48;;;;;;;19.37;9.07;;;;;;;;;;5050863;28;20044;-75
2021/12/30 02:53:14;;;;;;;15.00;8.77;;;;;;;;;;5048193;28;20029;-73
2021/12/30 02:55:41;;;;;;;18.67;9.40;;;;;;;;;;5045959;28;20406;-73
2021/12/30 02:58:07;;;;;;;19.30;9.20;;;;;;;;;;5050839;28;20469;-74
2021/12/30 03:00:34;;;;;;;22.73;9.47;;;;;;;;;;5049272;28;20036;-74
2021/12/30 03:02:59;;;;;;;15.27;9.07;;;;;;;;;;5050708;28;20033;-74
2021/12/30 03:05:25;;;;;;;15.23;7.90;;;;;;;;;;5049517;28;20404;-74
2021/12/30 03:07:52;;;;;;;16.33;8.30;;;;;;;;;;5049548;28;20054;-74
2021/12/30 03:10:22;;;;;;;14.60;7.93;;;;;;;;;;5048779;28;20108;-74
2021/12/30 03:12:55;;;;;;;20.00;8.63;;;;;;;;;;5049386;28;20170;-74
2021/12/30 03:15:23;;;;;;;18.77;8.43;;;;;;;;;;5049235;28;20036;-74
2021/12/30 03:17:48;;;;;;;22.80;8.83;;;;;;;;;;5049376;28;20120;-75
2021/12/30 03:20:14;;;;;;;16.63;8.03;;;;;;;;;;5050077;28;20571;-74
2021/12/30 03:22:40;;;;;;;14.00;8.27;;;;;;;;;;5050131;28;20551;-74
2021/12/30 03:25:09;;;;;;;19.40;8.60;;;;;;;;;;5050306;28;20037;-74
2021/12/30 03:27:35;;;;;;;23.47;9.17;;;;;;;;;;5050264;28;20436;-74
2021/12/30 03:30:04;;;;;;;17.77;8.00;;;;;;;;;;5049909;28;20494;-74
2021/12/30 03:32:30;;;;;;;15.83;8.23;;;;;;;;;;5044596;28;20465;-73
2021/12/30 03:34:55;;;;;;;19.47;8.43;;;;;;;;;;5044632;28;20056;-73
2021/12/30 03:37:22;;;;;;;15.73;7.83;;;;;;;;;;5049767;28;20029;-74
2021/12/30 03:39:48;;;;;;;14.93;7.13;;;;;;;;;;5049856;28;20460;-75
2021/12/30 03:42:15;;;;;;;15.30;7.93;;;;;;;;;;5049623;28;20477;-73
2021/12/30 03:44:40;;;;;;;18.37;8.63;;;;;;;;;;5048818;28;20472;-73
2021/12/30 03:47:07;;;;;;;16.60;8.50;;;;;;;;;;5049893;28;20047;-73
2021/12/30 03:49:33;;;;;;;16.80;8.70;;;;;;;;;;5049345;28;20075;-75
2021/12/30 03:51:58;;;;;;;18.23;8.77;;;;;;;;;;5048830;28;20033;-75
2021/12/30 03:54:24;;;;;;;15.50;7.40;;;;;;;;;;5048305;28;20531;-75
2021/12/30 03:56:49;;;;;;;15.77;6.87;;;;;;;;;;5048643;28;20029;-74
2021/12/30 03:59:15;;;;;;;13.90;7.90;;;;;;;;;;5047889;28;20029;-74
2021/12/30 04:01:41;;;;;;;12.80;7.63;;;;;;;;;;5048561;28;20114;-74
2021/12/30 04:04:06;;;;;;;11.57;7.07;;;;;;;;;;5047897;28;20029;-74
2021/12/30 04:06:32;;;;;;;15.33;8.67;;;;;;;;;;5049940;28;20063;-74
2021/12/30 04:08:58;;;;;;;14.37;7.50;;;;;;;;;;5049387;28;20554;-74
2021/12/30 04:11:26;;;;;;;17.60;8.40;;;;;;;;;;5048057;28;20021;-75
2021/12/30 04:13:52;;;;;;;15.77;8.30;;;;;;;;;;5051030;28;20116;-73
2021/12/30 04:16:20;;;;;;;14.13;7.23;;;;;;;;;;5053644;28;20025;-74
2021/12/30 04:18:48;;;;;;;15.00;7.47;;;;;;;;;;5050498;28;20133;-74
2021/12/30 04:21:16;;;;;;;13.33;7.63;;;;;;;;;;5048871;28;20048;-74
2021/12/30 04:23:41;;;;;;;13.37;6.80;;;;;;;;;;5049681;28;20064;-74
2021/12/30 04:26:07;;;;;;;14.83;7.33;;;;;;;;;;5049742;28;20485;-74
2021/12/30 04:28:32;;;;;;;14.20;7.27;;;;;;;;;;5047753;28;20036;-74
2021/12/30 04:30:58;;;;;;;15.13;6.87;;;;;;;;;;5049392;28;20492;-74
2021/12/30 04:33:23;;;;;;;12.73;6.80;;;;;;;;;;5048850;28;20264;-75
2021/12/30 04:35:51;;;;;;;12.07;6.83;;;;;;;;;;5048991;28;20088;-74
2021/12/30 04:38:17;;;;;;;12.37;7.07;;;;;;;;;;5046462;28;20086;-74
2021/12/30 04:40:42;;;;;;;9.60;6.17;;;;;;;;;;5049110;28;20048;-74
2021/12/30 04:43:09;;;;;;;11.57;6.73;;;;;;;;;;5049094;28;20056;-74
2021/12/30 04:45:35;;;;;;;8.57;5.60;;;;;;;;;;5047994;28;20343;-74
2021/12/30 04:48:01;;;;;;;11.57;5.80;;;;;;;;;;5047515;28;20037;-73
2021/12/30 04:50:27;;;;;;;9.73;5.83;;;;;;;;;;5049086;28;20071;-74
2021/12/30 04:52:52;;;;;;;8.63;5.80;;;;;;;;;;5049152;28;20060;-76
2021/12/30 04:55:18;;;;;;;8.50;5.30;;;;;;;;;;5046864;28;20103;-75
2021/12/30 04:57:44;;;;;;;11.90;5.03;;;;;;;;;;5048811;28;20102;-74
2021/12/30 05:00:11;;;;;;;6.83;4.57;;;;;;;;;;5047935;28;20409;-75
2021/12/30 05:03:21;;;;;;;12.43;5.17;;;;;;;;;;5046955;28;20029;-74
2021/12/30 05:05:26;;;;;;;7.23;4.83;;;;;;;;;;5044753;28;20044;-73
2021/12/30 05:07:52;;;;;;;8.20;5.20;;;;;;;;;;5048853;28;20036;-73
2021/12/30 05:10:17;;;;;;;10.07;5.00;;;;;;;;;;5046820;28;20071;-73
2021/12/30 05:12:43;;;;;;;7.97;4.00;;;;;;;;;;5046862;28;20186;-74
2021/12/30 05:15:09;;;;;;;5.37;3.60;;;;;;;;;;5047008;28;20055;-75
2021/12/30 05:17:35;;;;;;;5.53;3.60;;;;;;;;;;5047403;28;20028;-74
2021/12/30 05:20:02;;;;;;;4.87;3.50;;;;;;;;;;5048399;28;20272;-74
2021/12/30 05:22:28;;;;;;;4.37;2.80;;;;;;;;;;5046600;28;20029;-74
2021/12/30 05:24:53;;;;;;;5.67;3.30;;;;;;;;;;5049666;28;20432;-74
2021/12/30 05:27:19;;;;;;;4.93;2.50;;;;;;;;;;5052603;28;20029;-74
2021/12/30 05:29:45;;;;;;;4.13;2.87;;;;;;;;;;5050911;28;20098;-74
2021/12/30 05:32:11;;;;;;;3.10;2.60;;;;;;;;;;5053194;28;20078;-74
2021/12/30 05:34:37;;;;;;;5.00;3.73;;;;;;;;;;5051750;28;20033;-73
2021/12/30 05:37:02;;;;;;;5.93;3.23;;;;;;;;;;5035112;28;20033;-73
2021/12/30 05:39:29;;;;;;;3.17;2.53;;;;;;;;;;5051330;28;20029;-74
2021/12/30 05:41:55;;;;;;;5.37;2.77;;;;;;;;;;5052524;28;20507;-74
2021/12/30 05:44:21;;;;;;;6.80;2.87;;;;;;;;;;5050913;28;20029;-74
2021/12/30 05:46:46;;;;;;;5.03;2.73;;;;;;;;;;5050923;28;20408;-75
2021/12/30 05:49:12;;;;;;;5.83;2.90;;;;;;;;;;5051684;28;20071;-74
2021/12/30 05:51:37;;;;;;;3.30;3.00;;;;;;;;;;5052282;28;20028;-74
2021/12/30 05:54:03;;;;;;;3.07;2.50;;;;;;;;;;5052069;28;20029;-73
2021/12/30 05:56:29;;;;;;;4.37;3.00;;;;;;;;;;5052002;28;20028;-74
2021/12/30 05:58:55;;;;;;;3.90;2.50;;;;;;;;;;5050177;28;20033;-74
2021/12/30 06:01:20;;;;;;;7.90;2.57;;;;;;;;;;5052036;28;20040;-74
2021/12/30 06:03:45;;;;;;;7.10;3.07;;;;;;;;;;5050359;28;20120;-73
2021/12/30 06:06:11;;;;;;;4.17;3.00;;;;;;;;;;5052040;28;20060;-74
2021/12/30 06:08:38;;;;;;;4.50;2.60;;;;;;;;;;5047028;28;20099;-74
2021/12/30 06:11:04;;;;;;;4.13;2.93;;;;;;;;;;5050306;28;20028;-72
2021/12/30 06:13:29;;;;;;;3.47;2.50;;;;;;;;;;5051366;28;20070;-75
2021/12/30 06:15:55;;;;;;;3.83;2.77;;;;;;;;;;5051179;28;20496;-74
2021/12/30 06:18:20;;;;;;;4.17;2.70;;;;;;;;;;5045244;28;20468;-74
2021/12/30 06:20:46;;;;;;;4.63;2.80;;;;;;;;;;5046314;28;20048;-73
2021/12/30 06:23:11;;;;;;;4.83;2.60;;;;;;;;;;5044282;28;20025;-74
2021/12/30 06:25:37;;;;;;;3.40;2.80;;;;;;;;;;5050745;28;20093;-74
2021/12/30 06:28:03;;;;;;;5.80;3.17;;;;;;;;;;5051836;28;20598;-74
2021/12/30 06:30:29;;;;;;;2.90;2.60;;;;;;;;;;5051830;28;20055;-74
2021/12/30 06:32:54;;;;;;;6.17;2.50;;;;;;;;;;5051102;28;20060;-74
2021/12/30 06:35:20;;;;;;;3.13;2.50;;;;;;;;;;5048007;28;20748;-74
2021/12/30 06:37:46;;;;;;;3.63;2.97;;;;;;;;;;5049629;28;20508;-74
2021/12/30 06:40:13;;;;;;;3.90;2.37;;;;;;;;;;5050762;28;20037;-74
2021/12/30 06:42:41;;;;;;;6.40;3.53;;;;;;;;;;5050188;28;20090;-75
2021/12/30 06:45:07;;;;;;;5.17;3.00;;;;;;;;;;5051428;28;20092;-74
2021/12/30 06:47:33;;;;;;;3.07;2.60;;;;;;;;;;5075801;28;20055;-74
2021/12/30 06:50:01;;;;;;;6.03;2.50;;;;;;;;;;5044390;28;20032;-74
2021/12/30 06:52:28;;;;;;;5.50;2.60;;;;;;;;;;5048053;28;20563;-74
2021/12/30 06:54:53;;;;;;;8.20;3.60;;;;;;;;;;5043348;28;20097;-76
2021/12/30 06:57:19;;;;;;;4.60;2.80;;;;;;;;;;5047073;28;20024;-74
2021/12/30 06:59:46;;;;;;;5.30;2.77;;;;;;;;;;5048706;28;20112;-74
2021/12/30 07:02:13;;;;;;;7.40;2.97;;;;;;;;;;5050933;28;20130;-74
2021/12/30 07:04:38;;;;;;;5.17;3.23;;;;;;;;;;5030966;28;20190;-74
2021/12/30 07:07:04;;;;;;;4.43;3.13;;;;;;;;;;5044942;28;20108;-74
2021/12/30 07:09:30;;;;;;;5.57;3.43;;;;;;;;;;5083102;28;20029;-75
2021/12/30 07:11:55;;;;;;;6.13;3.27;;;;;;;;;;5047082;28;20039;-75
2021/12/30 07:14:23;;;;;;;9.23;3.80;;;;;;;;;;5045140;28;20047;-72
2021/12/30 07:16:49;;;;;;;5.67;3.40;;;;;;;;;;5047262;28;20048;-72
2021/12/30 07:19:15;;;;;;;6.80;3.40;;;;;;;;;;5045891;28;20036;-73
2021/12/30 07:21:41;;;;;;;7.37;3.60;;;;;;;;;;5048904;28;20037;-73
2021/12/30 07:24:07;;;;;;;4.63;3.27;;;;;;;;;;5046504;28;20120;-73
2021/12/30 07:26:33;;;;;;;7.70;3.53;;;;;;;;;;5045238;28;20209;-73
2021/12/30 07:28:59;;;;;;;6.27;3.20;;;;;;;;;;5047376;28;20040;-73
2021/12/30 07:31:25;;;;;;;7.20;3.90;;;;;;;;;;5048277;28;20033;-73
2021/12/30 07:33:51;;;;;;;8.60;3.83;;;;;;;;;;5050466;28;20052;-72
2021/12/30 07:36:16;;;;;;;6.83;4.10;;;;;;;;;;5048666;28;20482;-72
2021/12/30 07:38:43;;;;;;;8.17;3.87;;;;;;;;;;5045994;28;20465;-73
2021/12/30 07:41:08;;;;;;;6.33;4.07;;;;;;;;;;5045659;28;20083;-73
2021/12/30 07:43:34;;;;;;;7.53;4.10;;;;;;;;;;5047204;28;21054;-72
2021/12/30 07:46:00;;;;;;;6.60;4.40;;;;;;;;;;5046996;28;20524;-73
2021/12/30 07:48:26;;;;;;;7.90;4.43;;;;;;;;;;5028197;28;20433;-74
2021/12/30 07:50:52;;;;;;;9.97;4.10;;;;;;;;;;5074698;28;20047;-74
2021/12/30 07:53:18;;;;;;;8.47;3.67;;;;;;;;;;5047847;28;20029;-73
2021/12/30 07:55:43;;;;;;;9.37;4.33;;;;;;;;;;5049880;28;20032;-72
2021/12/30 07:58:09;;;;;;;4.67;3.73;;;;;;;;;;5049870;28;20029;-75
2021/12/30 08:00:34;;;;;;;7.30;3.77;;;;;;;;;;5049528;28;20051;-74
2021/12/30 08:03:00;;;;;;;6.83;4.30;;;;;;;;;;5049154;28;20040;-74
2021/12/30 08:05:28;;;;;;;8.00;3.60;;;;;;;;;;5049260;28;20088;-73
2021/12/30 08:07:54;;;;;;;8.70;4.23;;;;;;;;;;5047617;28;20619;-75
2021/12/30 08:10:20;;;;;;;6.13;3.47;;;;;;;;;;5047435;28;20028;-73
2021/12/30 08:12:47;;;;;;;7.10;4.00;;;;;;;;;;5047922;28;20086;-74
2021/12/30 08:15:14;;;;;;;5.10;3.00;;;;;;;;;;5049179;28;20025;-73
2021/12/30 08:17:41;;;;;;;9.27;4.03;;;;;;;;;;5047306;28;20036;-73
2021/12/30 08:20:09;;;;;;;7.33;3.67;;;;;;;;;;5048507;28;20064;-72
2021/12/30 08:22:35;;;;;;;6.77;4.17;;;;;;;;;;5048885;28;20082;-72
2021/12/30 08:25:01;;;;;;;6.03;3.50;;;;;;;;;;5047181;28;20029;-72
2021/12/30 08:27:28;;;;;;;4.63;3.07;;;;;;;;;;5047389;28;20045;-73
2021/12/30 08:29:53;;;;;;;6.07;3.50;;;;;;;;;;5047068;28;20037;-72
2021/12/30 08:32:19;;;;;;;7.70;3.30;;;;;;;;;;5046801;28;20031;-73
2021/12/30 08:34:45;;;;;;;6.97;3.67;;;;;;;;;;5048481;28;20409;-73
2021/12/30 08:37:12;;;;;;;6.73;3.23;;;;;;;;;;5046649;28;20117;-72
2021/12/30 08:39:40;;;;;;;7.83;3.70;;;;;;;;;;5046571;28;20059;-74
2021/12/30 08:42:18;;;;;;;8.70;3.87;;;;;;;;;;5046980;28;20041;-72
2021/12/30 08:44:44;;;;;;;8.90;4.57;;;;;;;;;;5047796;28;20025;-73
2021/12/30 08:47:10;;;;;;;5.87;3.67;;;;;;;;;;5048938;28;20078;-75
2021/12/30 08:49:35;;;;;;;8.67;4.00;;;;;;;;;;5079840;28;20033;-75
2021/12/30 08:52:01;;;;;;;5.83;3.83;;;;;;;;;;5048418;28;20074;-74
2021/12/30 08:54:26;;;;;;;6.33;3.63;;;;;;;;;;5080098;28;20059;-74
2021/12/30 08:56:52;;;;;;;7.03;3.90;;;;;;;;;;5047561;28;20029;-72
2021/12/30 08:59:17;;;;;;;7.97;3.77;;;;;;;;;;5046344;28;20555;-73
2021/12/30 09:01:43;;;;;;;9.70;4.17;;;;;;;;;;5048314;28;20047;-74
2021/12/30 09:04:08;;;;;;;8.87;4.63;;;;;;;;;;5046842;28;20029;-72
2021/12/30 09:06:34;;;;;;;12.57;4.13;;;;;;;;;;5048561;28;20038;-73
2021/12/30 09:08:59;;;;;;;6.10;3.97;;;;;;;;;;5046133;28;20384;-73
2021/12/30 09:11:25;;;;;;;8.83;4.60;;;;;;;;;;5047763;28;20033;-74
2021/12/30 09:13:50;;;;;;;9.80;4.23;;;;;;;;;;5045742;28;20063;-73
2021/12/30 09:16:16;;;;;;;7.37;3.70;;;;;;;;;;5045771;28;20037;-71
2021/12/30 09:18:42;;;;;;;7.70;4.57;;;;;;;;;;5044739;28;20043;-73
2021/12/30 09:21:08;;;;;;;7.67;4.07;;;;;;;;;;5045975;28;20587;-72
2021/12/30 09:23:34;;;;;;;6.80;4.37;;;;;;;;;;5041149;28;20103;-73
2021/12/30 09:25:59;;;;;;;9.93;4.57;;;;;;;;;;5076752;28;20028;-74
2021/12/30 09:28:26;;;;;;;13.32;4.90;;;;;;;;;;5045822;28;20533;-71
2021/12/30 09:30:52;;;;;;;8.47;4.50;;;;;;;;;;5046379;28;20037;-72
2021/12/30 09:33:17;;;;;;;9.35;3.88;;;;;;;;;;5040592;28;20089;-73
2021/12/30 09:35:47;;;;;;;11.63;5.33;;;;;;;;;;5043256;28;20137;-72
2021/12/30 09:38:13;;;;;;;9.90;4.05;;;;;;;;;;5045175;28;20025;-73
2021/12/30 09:40:39;;;;;;;9.38;4.10;;;;;;;;;;5044624;28;20681;-72
2021/12/30 09:43:05;;;;;;;11.68;4.25;;;;;;;;;;5046557;28;20120;-72
2021/12/30 09:45:37;;;;;;;7.07;4.28;;;;;;;;;;5057044;28;20036;-74
2021/12/30 09:48:05;;;;;;;10.70;4.93;;;;;;;;;;5043129;28;20462;-72
2021/12/30 09:50:34;;;;;;;6.72;3.88;;;;;;;;;;5046957;28;20024;-73
2021/12/30 09:53:00;;;;;;;11.73;4.53;;;;;;;;;;5045103;28;20456;-74
2021/12/30 09:55:26;;;;;;;10.27;4.10;;;;;;;;;;5041330;28;20223;-72
2021/12/30 09:57:53;;;;;;;9.70;4.20;;;;;;;;;;5044750;28;20115;-71
2021/12/30 10:00:19;;;;;;;8.02;4.68;;;;;;;;;;5046272;28;20029;-74
2021/12/30 10:02:45;;;;;;;7.07;3.60;;;;;;;;;;5042560;28;20124;-73
2021/12/30 10:05:14;;;;;;;8.32;3.65;;;;;;;;;;5042743;28;20120;-74
2021/12/30 10:07:41;;;;;;;7.28;3.97;;;;;;;;;;5046190;28;20095;-74
2021/12/30 10:10:27;;;;;;;8.68;3.70;;;;;;;;;;5078364;28;20317;-73
2021/12/30 10:12:54;;;;;;;7.68;3.80;;;;;;;;;;5050539;28;20438;-73
2021/12/30 10:15:24;;;;;;;10.95;4.45;;;;;;;;;;5048871;28;20481;-73
2021/12/30 10:18:00;;;;;;;8.48;3.75;;;;;;;;;;5049937;28;20037;-75
2021/12/30 10:20:28;;;;;;;6.00;3.30;;;;;;;;;;5044334;28;20071;-73
2021/12/30 10:22:57;;;;;;;9.82;3.33;;;;;;;;;;5048061;28;20033;-72
2021/12/30 10:25:28;;;;;;;10.45;3.70;;;;;;;;;;5047319;28;20028;-73
2021/12/30 10:27:55;;;;;;;7.70;3.83;;;;;;;;;;5048184;28;20029;-73
2021/12/30 10:30:34;;;;;;;8.38;3.50;;;;;;;;;;5048475;28;20025;-73
2021/12/30 10:33:14;;;;;;;8.60;3.47;;;;;;;;;;5048777;28;20478;-72
2021/12/30 10:35:40;;;;;;;5.90;3.15;;;;;;;;;;5049414;28;20128;-76
2021/12/30 10:38:11;;;;;;;8.32;3.15;;;;;;;;;;5049608;28;20115;-74
2021/12/30 10:40:41;;;;;;;7.50;4.03;;;;;;;;;;5081311;28;20086;-72
2021/12/30 10:43:26;;;;;;;13.55;4.85;;;;;;;;;;5051226;28;20074;-74
2021/12/30 10:46:15;;;;;;;10.13;4.53;;;;;;;;;;5047590;28;20029;-74
2021/12/30 10:48:57;;;;;;;11.80;3.47;;;;;;;;;;5049765;28;20035;-76
2021/12/30 10:51:36;;;;;;;21.30;9.43;;;;;;;;;;5049985;28;20025;-74
2021/12/30 10:54:28;;;;;;;13.10;7.53;;;;;;;;;;5048267;28;20106;-73
2021/12/30 10:57:00;;;;;;;15.90;3.50;;;;;;;;;;5046690;28;20058;-71
2021/12/30 10:59:28;;;;;;;7.95;2.92;;;;;;;;;;5050802;28;20102;-73
2021/12/30 11:02:17;;;;;;;7.05;3.05;;;;;;;;;;5049284;28;20028;-72
2021/12/30 11:04:47;;;;;;;5.75;2.72;;;;;;;;;;5063139;28;20037;-73
2021/12/30 11:07:18;;;;;;;5.80;3.10;;;;;;;;;;5048807;28;20426;-73
2021/12/30 11:09:52;;;;;;;9.68;3.63;;;;;;;;;;5049333;28;20074;-71
2021/12/30 11:12:30;;;;;;;6.35;3.25;;;;;;;;;;5046949;28;20028;-71
2021/12/30 11:14:58;;;;;;;12.32;3.63;;;;;;;;;;5048133;28;20075;-73
2021/12/30 11:17:33;;;;;;;12.50;6.15;;;;;;;;;;5046555;28;20445;-71
2021/12/30 11:20:09;;;;;;;7.55;4.22;;;;;;;;;;5044600;28;20067;-71
2021/12/30 11:22:36;;;;;;;7.90;3.85;;;;;;;;;;5041670;28;20029;-74
2021/12/30 11:25:05;;;;;;;10.65;3.35;;;;;;;;;;5072448;28;20031;-72
2021/12/30 11:27:32;;;;;;;5.22;3.50;;;;;;;;;;5045940;28;20124;-74
2021/12/30 11:30:12;;;;;;;8.55;4.30;;;;;;;;;;5082216;28;20021;-73
2021/12/30 11:32:39;;;;;;;6.20;3.30;;;;;;;;;;5043281;28;20560;-73
2021/12/30 11:35:07;;;;;;;10.43;3.47;;;;;;;;;;5047267;28;20070;-73
2021/12/30 11:37:34;;;;;;;11.70;3.67;;;;;;;;;;5044496;28;20119;-73
2021/12/30 11:40:06;;;;;;;9.45;2.90;;;;;;;;;;5046468;28;20067;-74
2021/12/30 11:42:43;;;;;;;8.50;3.47;;;;;;;;;;5046634;28;20021;-73
2021/12/30 11:45:30;;;;;;;6.40;2.92;;;;;;;;;;5046638;28;20040;-73
2021/12/30 11:48:04;;;;;;;6.97;3.72;;;;;;;;;;5048179;28;20515;-73
2021/12/30 11:50:34;;;;;;;8.18;3.08;;;;;;;;;;5044029;28;20034;-73
2021/12/30 11:53:11;;;;;;;11.10;3.50;;;;;;;;;;5047649;28;20025;-73
2021/12/30 11:55:52;;;;;;;8.15;3.50;;;;;;;;;;5045742;28;20040;-71
2021/12/30 11:58:37;;;;;;;13.82;4.47;;;;;;;;;;5046162;28;20047;-73
2021/12/30 12:01:12;;;;;;;10.60;3.33;;;;;;;;;;5048263;28;20025;-74
2021/12/30 12:03:52;;;;;;;5.60;2.95;;;;;;;;;;5053831;28;20379;-74
2021/12/30 12:06:24;;;;;;;7.50;2.95;;;;;;;;;;5044929;28;20146;-74
2021/12/30 12:09:05;;;;;;;9.07;3.10;;;;;;;;;;5044345;28;20028;-74
2021/12/30 12:11:42;;;;;;;8.32;2.70;;;;;;;;;;5043347;28;20100;-74
2021/12/30 12:14:12;;;;;;;5.15;2.58;;;;;;;;;;5046493;28;20032;-73
2021/12/30 12:17:01;;;;;;;8.20;2.65;;;;;;;;;;5046915;28;20041;-73
2021/12/30 12:19:33;;;;;;;10.75;3.42;;;;;;;;;;5048019;28;20051;-72
2021/12/30 12:21:59;;;;;;;8.82;2.67;;;;;;;;;;5046816;28;20489;-73
2021/12/30 12:24:28;;;;;;;5.60;2.50;;;;;;;;;;5051152;28;20032;-73
2021/12/30 12:27:05;;;;;;;5.13;2.42;;;;;;;;;;5052789;28;20036;-72
2021/12/30 12:29:38;;;;;;;8.27;2.63;;;;;;;;;;5048749;28;20056;-73
2021/12/30 12:32:10;;;;;;;7.45;2.72;;;;;;;;;;5064606;28;20086;-73
2021/12/30 12:34:50;;;;;;;5.45;3.17;;;;;;;;;;5046760;28;20025;-73
2021/12/30 12:37:40;;;;;;;7.55;3.20;;;;;;;;;;5047883;28;20067;-75
2021/12/30 12:40:23;;;;;;;6.00;2.70;;;;;;;;;;5045419;28;20040;-72
2021/12/30 12:42:50;;;;;;;5.07;2.58;;;;;;;;;;5047391;28;20454;-73
2021/12/30 12:45:34;;;;;;;6.68;2.45;;;;;;;;;;5047199;28;20029;-73
2021/12/30 12:48:20;;;;;;;7.55;2.60;;;;;;;;;;5046360;28;20041;-72
2021/12/30 12:50:59;;;;;;;4.97;2.60;;;;;;;;;;5048999;28;20083;-71
2021/12/30 12:53:28;;;;;;;7.43;2.83;;;;;;;;;;5047202;28;20024;-73
2021/12/30 12:55:58;;;;;;;10.50;2.47;;;;;;;;;;5044268;28;20098;-72
2021/12/30 12:58:26;;;;;;;8.05;2.45;;;;;;;;;;5044411;28;20082;-75
2021/12/30 13:00:55;;;;;;;11.75;4.90;;;;;;;;;;5044776;28;20064;-72
2021/12/30 13:03:21;;;;;;;4.82;2.90;;;;;;;;;;5047270;28;20384;-74
2021/12/30 13:05:59;;;;;;;6.32;2.95;;;;;;;;;;5047105;28;20124;-74
2021/12/30 13:08:25;;;;;;;7.32;2.30;;;;;;;;;;5047709;28;20035;-75
2021/12/30 13:10:52;;;;;;;4.95;3.20;;;;;;;;;;5047028;28;20029;-79
2021/12/30 13:13:36;;;;;;;5.95;2.70;;;;;;;;;;5049308;28;20585;-79
2021/12/30 13:16:05;;;;;;;5.75;2.83;;;;;;;;;;5045520;28;20025;-78
2021/12/30 13:18:33;;;;;;;7.45;2.80;;;;;;;;;;5045164;28;20040;-78
2021/12/30 13:21:12;;;;;;;5.75;2.78;;;;;;;;;;5047180;28;20487;-79
2021/12/30 13:23:37;;;;;;;9.93;3.25;;;;;;;;;;5048137;28;20071;-77
2021/12/30 13:26:09;;;;;;;6.43;2.85;;;;;;;;;;5048967;28;20059;-75
2021/12/30 13:28:52;;;;;;;7.53;2.97;;;;;;;;;;5045622;28;20035;-74
2021/12/30 13:31:18;;;;;;;7.53;3.20;;;;;;;;;;5048500;28;20063;-77
2021/12/30 13:33:56;;;;;;;8.13;3.25;;;;;;;;;;5048155;28;20541;-77
2021/12/30 13:36:23;;;;;;;8.18;3.08;;;;;;;;;;5048756;28;20045;-79
2021/12/30 13:38:48;;;;;;;7.00;3.08;;;;;;;;;;5050638;28;20044;-78
2021/12/30 13:41:16;;;;;;;7.63;3.35;;;;;;;;;;5054153;28;20025;-79
2021/12/30 13:43:44;;;;;;;7.53;3.80;;;;;;;;;;5048905;28;20033;-79
2021/12/30 13:46:10;;;;;;;6.40;2.67;;;;;;;;;;5053435;28;20100;-77
2021/12/30 13:48:41;;;;;;;6.57;2.97;;;;;;;;;;5053485;28;20029;-78
2021/12/30 13:51:28;;;;;;;6.20;3.97;;;;;;;;;;5053541;28;20091;-77
2021/12/30 13:53:54;;;;;;;7.30;3.50;;;;;;;;;;5046641;28;20552;-77
2021/12/30 13:56:23;;;;;;;7.70;2.60;;;;;;;;;;5051491;28;20040;-79
2021/12/30 13:58:51;;;;;;;5.60;3.70;;;;;;;;;;5050655;28;20094;-77
2021/12/30 14:01:23;;;;;;;6.15;3.47;;;;;;;;;;5052023;28;20053;-78
2021/12/30 14:03:51;;;;;;;5.45;3.35;;;;;;;;;;5050440;28;20104;-78
2021/12/30 14:06:25;;;;;;;9.77;3.92;;;;;;;;;;5050229;28;20033;-77
2021/12/30 14:09:03;;;;;;;9.27;4.43;;;;;;;;;;5050511;28;20032;-79
2021/12/30 14:11:33;;;;;;;9.10;4.53;;;;;;;;;;5051428;28;20021;-77
2021/12/30 14:14:00;;;;;;;8.93;5.82;;;;;;;;;;5049899;28;20358;-79
2021/12/30 14:16:34;;;;;;;6.18;3.95;;;;;;;;;;5033727;28;20481;-76
2021/12/30 14:19:00;;;;;;;9.23;3.80;;;;;;;;;;5047539;28;20029;-79
2021/12/30 14:21:28;;;;;;;6.63;4.05;;;;;;;;;;5050752;28;20033;-77
2021/12/30 14:23:56;;;;;;;10.93;3.88;;;;;;;;;;5049939;28;20032;-77
2021/12/30 14:26:31;;;;;;;8.13;3.78;;;;;;;;;;5050443;28;20398;-76
2021/12/30 14:29:01;;;;;;;9.52;4.35;;;;;;;;;;5047605;28;20060;-79
2021/12/30 14:32:00;;;;;;;5.63;3.35;;;;;;;;;;5054385;28;20028;-79
2021/12/30 14:34:34;;;;;;;7.57;3.45;;;;;;;;;;5041334;28;20067;-77
2021/12/30 14:37:12;;;;;;;4.05;2.75;;;;;;;;;;5046737;28;20543;-79
2021/12/30 14:39:44;;;;;;;8.80;3.13;;;;;;;;;;5049187;28;20032;-77
2021/12/30 14:42:24;;;;;;;3.65;2.67;;;;;;;;;;5047616;28;20102;-75
2021/12/30 14:44:55;;;;;;;5.95;2.88;;;;;;;;;;5045640;28;20049;-78